sensor_id;sensor_type;location;lat;lon;timestamp;P1;durP1;ratioP1;P2;durP2;ratioP2
46006;SDS011;31738;50.188;8.524;2022-08-01T00:00:32;1.63;;;1.30;;
46006;SDS011;31738;50.188;8.524;2022-08-01T00:02:57;3.13;;;1.63;;
46006;SDS011;31738;50.188;8.524;2022-08-01T00:05:23;4.38;;;1.65;;
46006;SDS011;31738;50.188;8.524;2022-08-01T00:07:48;1.52;;;1.30;;
46006;SDS011;31738;50.188;8.524;2022-08-01T00:10:14;1.52;;;1.27;;
46006;SDS011;31738;50.188;8.524;2022-08-01T00:12:42;1.80;;;1.00;;
46006;SDS011;31738;50.188;8.524;2022-08-01T00:15:09;1.75;;;1.30;;
46006;SDS011;31738;50.188;8.524;2022-08-01T00:17:36;1.63;;;1.38;;
46006;SDS011;31738;50.188;8.524;2022-08-01T00:20:02;2.95;;;1.60;;
46006;SDS011;31738;50.188;8.524;2022-08-01T00:22:30;2.00;;;1.20;;
46006;SDS011;31738;50.188;8.524;2022-08-01T00:24:56;1.83;;;1.20;;
46006;SDS011;31738;50.188;8.524;2022-08-01T00:27:22;1.63;;;1.40;;
46006;SDS011;31738;50.188;8.524;2022-08-01T00:29:47;2.20;;;1.27;;
46006;SDS011;31738;50.188;8.524;2022-08-01T00:32:13;2.40;;;1.25;;
46006;SDS011;31738;50.188;8.524;2022-08-01T00:34:38;2.47;;;1.00;;
46006;SDS011;31738;50.188;8.524;2022-08-01T00:37:04;2.45;;;1.45;;
46006;SDS011;31738;50.188;8.524;2022-08-01T00:39:29;2.65;;;1.50;;
46006;SDS011;31738;50.188;8.524;2022-08-01T00:41:55;2.58;;;1.45;;
46006;SDS011;31738;50.188;8.524;2022-08-01T00:44:20;2.15;;;1.40;;
46006;SDS011;31738;50.188;8.524;2022-08-01T00:46:46;4.10;;;1.40;;
46006;SDS011;31738;50.188;8.524;2022-08-01T00:49:11;1.88;;;1.30;;
46006;SDS011;31738;50.188;8.524;2022-08-01T00:51:37;1.52;;;1.33;;
46006;SDS011;31738;50.188;8.524;2022-08-01T00:54:03;3.13;;;1.40;;
46006;SDS011;31738;50.188;8.524;2022-08-01T00:56:29;2.97;;;1.20;;
46006;SDS011;31738;50.188;8.524;2022-08-01T00:58:56;2.38;;;1.20;;
46006;SDS011;31738;50.188;8.524;2022-08-01T01:01:22;1.88;;;1.40;;
46006;SDS011;31738;50.188;8.524;2022-08-01T01:03:48;2.45;;;1.40;;
46006;SDS011;31738;50.188;8.524;2022-08-01T01:08:55;1.92;;;1.33;;
46006;SDS011;31738;50.188;8.524;2022-08-01T01:11:34;1.75;;;1.48;;
46006;SDS011;31738;50.188;8.524;2022-08-01T01:14:09;1.67;;;1.35;;
46006;SDS011;31738;50.188;8.524;2022-08-01T01:16:41;4.05;;;1.40;;
46006;SDS011;31738;50.188;8.524;2022-08-01T01:24:21;1.88;;;1.40;;
46006;SDS011;31738;50.188;8.524;2022-08-01T01:27:06;2.10;;;1.40;;
46006;SDS011;31738;50.188;8.524;2022-08-01T01:29:48;3.10;;;1.27;;
46006;SDS011;31738;50.188;8.524;2022-08-01T01:32:22;3.57;;;1.30;;
46006;SDS011;31738;50.188;8.524;2022-08-01T01:34:54;2.25;;;1.42;;
46006;SDS011;31738;50.188;8.524;2022-08-01T01:37:21;3.00;;;1.50;;
46006;SDS011;31738;50.188;8.524;2022-08-01T01:39:50;2.33;;;1.42;;
46006;SDS011;31738;50.188;8.524;2022-08-01T01:42:17;3.42;;;1.48;;
46006;SDS011;31738;50.188;8.524;2022-08-01T01:44:44;2.45;;;1.25;;
46006;SDS011;31738;50.188;8.524;2022-08-01T01:47:14;2.78;;;1.52;;
46006;SDS011;31738;50.188;8.524;2022-08-01T01:49:43;1.63;;;1.23;;
46006;SDS011;31738;50.188;8.524;2022-08-01T01:52:12;3.95;;;1.45;;
46006;SDS011;31738;50.188;8.524;2022-08-01T01:54:42;7.70;;;1.70;;
46006;SDS011;31738;50.188;8.524;2022-08-01T01:57:12;3.15;;;1.20;;
46006;SDS011;31738;50.188;8.524;2022-08-01T01:59:39;2.08;;;1.30;;
46006;SDS011;31738;50.188;8.524;2022-08-01T02:02:06;4.20;;;1.50;;
46006;SDS011;31738;50.188;8.524;2022-08-01T02:04:38;3.15;;;1.50;;
46006;SDS011;31738;50.188;8.524;2022-08-01T02:07:07;2.63;;;1.55;;
46006;SDS011;31738;50.188;8.524;2022-08-01T02:09:35;2.08;;;1.70;;
46006;SDS011;31738;50.188;8.524;2022-08-01T02:12:02;3.20;;;1.33;;
46006;SDS011;31738;50.188;8.524;2022-08-01T02:14:31;3.15;;;1.55;;
46006;SDS011;31738;50.188;8.524;2022-08-01T02:17:00;2.85;;;1.63;;
46006;SDS011;31738;50.188;8.524;2022-08-01T02:19:28;3.03;;;1.40;;
46006;SDS011;31738;50.188;8.524;2022-08-01T02:21:55;1.70;;;1.38;;
46006;SDS011;31738;50.188;8.524;2022-08-01T02:24:31;4.03;;;1.45;;
46006;SDS011;31738;50.188;8.524;2022-08-01T02:26:58;2.95;;;1.75;;
46006;SDS011;31738;50.188;8.524;2022-08-01T02:29:35;3.20;;;1.90;;
46006;SDS011;31738;50.188;8.524;2022-08-01T02:32:04;2.60;;;1.58;;
46006;SDS011;31738;50.188;8.524;2022-08-01T02:34:32;3.53;;;1.60;;
46006;SDS011;31738;50.188;8.524;2022-08-01T02:37:01;2.42;;;1.52;;
46006;SDS011;31738;50.188;8.524;2022-08-01T02:39:28;2.75;;;1.27;;
46006;SDS011;31738;50.188;8.524;2022-08-01T02:41:57;4.78;;;1.45;;
46006;SDS011;31738;50.188;8.524;2022-08-01T02:44:30;2.47;;;1.25;;
46006;SDS011;31738;50.188;8.524;2022-08-01T02:46:59;1.67;;;1.40;;
46006;SDS011;31738;50.188;8.524;2022-08-01T02:49:31;4.90;;;1.50;;
46006;SDS011;31738;50.188;8.524;2022-08-01T02:51:59;2.13;;;1.60;;
46006;SDS011;31738;50.188;8.524;2022-08-01T02:54:29;4.72;;;1.58;;
46006;SDS011;31738;50.188;8.524;2022-08-01T02:56:56;1.63;;;1.35;;
46006;SDS011;31738;50.188;8.524;2022-08-01T02:59:22;1.48;;;1.30;;
46006;SDS011;31738;50.188;8.524;2022-08-01T03:01:51;2.70;;;1.65;;
46006;SDS011;31738;50.188;8.524;2022-08-01T03:04:20;3.15;;;1.40;;
46006;SDS011;31738;50.188;8.524;2022-08-01T03:06:48;1.42;;;1.33;;
46006;SDS011;31738;50.188;8.524;2022-08-01T03:09:14;3.92;;;1.40;;
46006;SDS011;31738;50.188;8.524;2022-08-01T03:11:41;3.88;;;1.63;;
46006;SDS011;31738;50.188;8.524;2022-08-01T03:14:09;2.65;;;1.65;;
46006;SDS011;31738;50.188;8.524;2022-08-01T03:16:37;2.50;;;1.40;;
46006;SDS011;31738;50.188;8.524;2022-08-01T03:19:04;2.70;;;1.83;;
46006;SDS011;31738;50.188;8.524;2022-08-01T03:21:33;2.60;;;1.70;;
46006;SDS011;31738;50.188;8.524;2022-08-01T03:24:01;3.35;;;1.83;;
46006;SDS011;31738;50.188;8.524;2022-08-01T03:26:28;3.40;;;1.80;;
46006;SDS011;31738;50.188;8.524;2022-08-01T03:28:55;2.88;;;1.45;;
46006;SDS011;31738;50.188;8.524;2022-08-01T03:31:24;2.83;;;1.55;;
46006;SDS011;31738;50.188;8.524;2022-08-01T03:33:51;4.20;;;1.77;;
46006;SDS011;31738;50.188;8.524;2022-08-01T03:36:17;2.40;;;1.60;;
46006;SDS011;31738;50.188;8.524;2022-08-01T03:38:48;2.95;;;1.42;;
46006;SDS011;31738;50.188;8.524;2022-08-01T03:41:18;4.43;;;2.20;;
46006;SDS011;31738;50.188;8.524;2022-08-01T03:44:00;2.58;;;1.67;;
46006;SDS011;31738;50.188;8.524;2022-08-01T03:46:36;2.90;;;1.60;;
46006;SDS011;31738;50.188;8.524;2022-08-01T03:49:08;2.00;;;1.48;;
46006;SDS011;31738;50.188;8.524;2022-08-01T03:51:39;2.85;;;2.00;;
46006;SDS011;31738;50.188;8.524;2022-08-01T03:54:05;2.65;;;1.40;;
46006;SDS011;31738;50.188;8.524;2022-08-01T03:56:33;4.47;;;1.60;;
46006;SDS011;31738;50.188;8.524;2022-08-01T03:59:01;2.72;;;1.60;;
46006;SDS011;31738;50.188;8.524;2022-08-01T04:01:30;3.95;;;2.10;;
46006;SDS011;31738;50.188;8.524;2022-08-01T04:03:57;3.30;;;1.70;;
46006;SDS011;31738;50.188;8.524;2022-08-01T04:06:24;5.00;;;1.80;;
46006;SDS011;31738;50.188;8.524;2022-08-01T04:08:49;4.05;;;1.95;;
46006;SDS011;31738;50.188;8.524;2022-08-01T04:11:24;3.50;;;1.88;;
46006;SDS011;31738;50.188;8.524;2022-08-01T04:13:53;4.22;;;2.17;;
46006;SDS011;31738;50.188;8.524;2022-08-01T04:16:19;4.07;;;1.80;;
46006;SDS011;31738;50.188;8.524;2022-08-01T04:18:45;3.00;;;1.67;;
46006;SDS011;31738;50.188;8.524;2022-08-01T04:21:11;4.35;;;1.75;;
46006;SDS011;31738;50.188;8.524;2022-08-01T04:23:37;2.95;;;1.60;;
46006;SDS011;31738;50.188;8.524;2022-08-01T04:26:06;4.20;;;1.50;;
46006;SDS011;31738;50.188;8.524;2022-08-01T04:28:34;1.40;;;1.30;;
46006;SDS011;31738;50.188;8.524;2022-08-01T04:31:02;1.63;;;1.52;;
46006;SDS011;31738;50.188;8.524;2022-08-01T04:33:34;1.80;;;1.40;;
46006;SDS011;31738;50.188;8.524;2022-08-01T04:36:02;2.70;;;1.60;;
46006;SDS011;31738;50.188;8.524;2022-08-01T04:38:32;4.50;;;1.95;;
46006;SDS011;31738;50.188;8.524;2022-08-01T04:40:59;3.38;;;1.80;;
46006;SDS011;31738;50.188;8.524;2022-08-01T04:43:27;1.70;;;1.50;;
46006;SDS011;31738;50.188;8.524;2022-08-01T04:45:52;2.15;;;1.42;;
46006;SDS011;31738;50.188;8.524;2022-08-01T04:48:20;3.38;;;1.67;;
46006;SDS011;31738;50.188;8.524;2022-08-01T04:50:47;2.08;;;1.58;;
46006;SDS011;31738;50.188;8.524;2022-08-01T04:53:13;3.40;;;1.50;;
46006;SDS011;31738;50.188;8.524;2022-08-01T04:55:42;3.70;;;1.58;;
46006;SDS011;31738;50.188;8.524;2022-08-01T04:58:11;3.40;;;1.90;;
46006;SDS011;31738;50.188;8.524;2022-08-01T05:00:37;2.25;;;1.48;;
46006;SDS011;31738;50.188;8.524;2022-08-01T05:03:03;2.33;;;1.60;;
46006;SDS011;31738;50.188;8.524;2022-08-01T05:05:29;3.70;;;1.50;;
46006;SDS011;31738;50.188;8.524;2022-08-01T05:07:55;3.13;;;1.60;;
46006;SDS011;31738;50.188;8.524;2022-08-01T05:10:21;1.73;;;1.60;;
46006;SDS011;31738;50.188;8.524;2022-08-01T05:12:47;3.83;;;1.73;;
46006;SDS011;31738;50.188;8.524;2022-08-01T05:15:12;3.22;;;1.75;;
46006;SDS011;31738;50.188;8.524;2022-08-01T05:17:38;2.83;;;1.90;;
46006;SDS011;31738;50.188;8.524;2022-08-01T05:20:03;2.38;;;1.85;;
46006;SDS011;31738;50.188;8.524;2022-08-01T05:22:31;2.33;;;1.95;;
46006;SDS011;31738;50.188;8.524;2022-08-01T05:24:57;3.47;;;2.08;;
46006;SDS011;31738;50.188;8.524;2022-08-01T05:27:24;4.70;;;2.00;;
46006;SDS011;31738;50.188;8.524;2022-08-01T05:29:50;2.58;;;2.20;;
46006;SDS011;31738;50.188;8.524;2022-08-01T05:32:16;2.05;;;1.85;;
46006;SDS011;31738;50.188;8.524;2022-08-01T05:34:42;5.20;;;2.42;;
46006;SDS011;31738;50.188;8.524;2022-08-01T05:37:07;2.80;;;2.40;;
46006;SDS011;31738;50.188;8.524;2022-08-01T05:39:33;3.50;;;2.33;;
46006;SDS011;31738;50.188;8.524;2022-08-01T05:41:59;2.80;;;2.03;;
46006;SDS011;31738;50.188;8.524;2022-08-01T05:44:24;2.88;;;2.45;;
46006;SDS011;31738;50.188;8.524;2022-08-01T05:46:50;2.53;;;2.30;;
46006;SDS011;31738;50.188;8.524;2022-08-01T05:49:16;3.50;;;2.17;;
46006;SDS011;31738;50.188;8.524;2022-08-01T05:51:42;4.03;;;2.25;;
46006;SDS011;31738;50.188;8.524;2022-08-01T05:54:07;4.45;;;2.72;;
46006;SDS011;31738;50.188;8.524;2022-08-01T05:56:33;3.20;;;2.25;;
46006;SDS011;31738;50.188;8.524;2022-08-01T05:58:58;4.28;;;2.67;;
46006;SDS011;31738;50.188;8.524;2022-08-01T06:01:24;4.65;;;2.58;;
46006;SDS011;31738;50.188;8.524;2022-08-01T06:03:50;2.97;;;2.63;;
46006;SDS011;31738;50.188;8.524;2022-08-01T06:06:15;4.18;;;2.38;;
46006;SDS011;31738;50.188;8.524;2022-08-01T06:08:41;3.83;;;2.50;;
46006;SDS011;31738;50.188;8.524;2022-08-01T06:11:06;4.80;;;3.45;;
46006;SDS011;31738;50.188;8.524;2022-08-01T06:13:32;6.88;;;3.10;;
46006;SDS011;31738;50.188;8.524;2022-08-01T06:15:57;5.32;;;3.60;;
46006;SDS011;31738;50.188;8.524;2022-08-01T06:18:23;4.18;;;3.35;;
46006;SDS011;31738;50.188;8.524;2022-08-01T06:20:49;5.57;;;3.72;;
46006;SDS011;31738;50.188;8.524;2022-08-01T06:23:14;8.40;;;4.00;;
46006;SDS011;31738;50.188;8.524;2022-08-01T06:25:41;5.45;;;3.85;;
46006;SDS011;31738;50.188;8.524;2022-08-01T06:28:09;5.70;;;3.78;;
46006;SDS011;31738;50.188;8.524;2022-08-01T06:30:35;4.65;;;4.03;;
46006;SDS011;31738;50.188;8.524;2022-08-01T06:33:00;5.45;;;4.05;;
46006;SDS011;31738;50.188;8.524;2022-08-01T06:35:26;4.72;;;4.07;;
46006;SDS011;31738;50.188;8.524;2022-08-01T06:37:53;6.65;;;4.35;;
46006;SDS011;31738;50.188;8.524;2022-08-01T06:40:19;7.60;;;4.43;;
46006;SDS011;31738;50.188;8.524;2022-08-01T06:42:44;9.98;;;5.43;;
46006;SDS011;31738;50.188;8.524;2022-08-01T06:45:11;9.35;;;5.72;;
46006;SDS011;31738;50.188;8.524;2022-08-01T06:47:38;7.28;;;5.18;;
46006;SDS011;31738;50.188;8.524;2022-08-01T06:50:04;8.38;;;5.32;;
46006;SDS011;31738;50.188;8.524;2022-08-01T06:52:31;7.63;;;4.85;;
46006;SDS011;31738;50.188;8.524;2022-08-01T06:54:57;8.38;;;5.95;;
46006;SDS011;31738;50.188;8.524;2022-08-01T06:57:23;8.43;;;5.53;;
46006;SDS011;31738;50.188;8.524;2022-08-01T06:59:48;7.43;;;5.80;;
46006;SDS011;31738;50.188;8.524;2022-08-01T07:02:14;7.65;;;5.57;;
46006;SDS011;31738;50.188;8.524;2022-08-01T07:04:39;9.77;;;5.80;;
46006;SDS011;31738;50.188;8.524;2022-08-01T07:07:05;8.63;;;5.28;;
46006;SDS011;31738;50.188;8.524;2022-08-01T07:09:31;7.88;;;5.32;;
46006;SDS011;31738;50.188;8.524;2022-08-01T07:11:56;7.13;;;5.88;;
46006;SDS011;31738;50.188;8.524;2022-08-01T07:14:22;8.02;;;5.50;;
46006;SDS011;31738;50.188;8.524;2022-08-01T07:16:49;6.68;;;5.97;;
46006;SDS011;31738;50.188;8.524;2022-08-01T07:19:15;6.38;;;5.70;;
46006;SDS011;31738;50.188;8.524;2022-08-01T07:21:41;7.55;;;5.97;;
46006;SDS011;31738;50.188;8.524;2022-08-01T07:24:07;6.50;;;5.45;;
46006;SDS011;31738;50.188;8.524;2022-08-01T07:26:35;8.10;;;5.72;;
46006;SDS011;31738;50.188;8.524;2022-08-01T07:29:01;7.07;;;5.38;;
46006;SDS011;31738;50.188;8.524;2022-08-01T07:31:27;7.82;;;5.55;;
46006;SDS011;31738;50.188;8.524;2022-08-01T07:33:53;6.68;;;5.80;;
46006;SDS011;31738;50.188;8.524;2022-08-01T07:36:19;8.50;;;5.72;;
46006;SDS011;31738;50.188;8.524;2022-08-01T07:38:45;6.70;;;5.15;;
46006;SDS011;31738;50.188;8.524;2022-08-01T07:41:11;5.88;;;5.28;;
46006;SDS011;31738;50.188;8.524;2022-08-01T07:43:37;6.90;;;5.25;;
46006;SDS011;31738;50.188;8.524;2022-08-01T07:46:03;5.97;;;5.18;;
46006;SDS011;31738;50.188;8.524;2022-08-01T07:48:29;8.07;;;5.07;;
46006;SDS011;31738;50.188;8.524;2022-08-01T07:50:55;5.90;;;5.20;;
46006;SDS011;31738;50.188;8.524;2022-08-01T07:53:20;7.18;;;5.30;;
46006;SDS011;31738;50.188;8.524;2022-08-01T07:55:46;7.97;;;5.25;;
46006;SDS011;31738;50.188;8.524;2022-08-01T07:58:13;6.05;;;5.00;;
46006;SDS011;31738;50.188;8.524;2022-08-01T08:00:38;7.50;;;5.50;;
46006;SDS011;31738;50.188;8.524;2022-08-01T08:03:04;5.93;;;4.90;;
46006;SDS011;31738;50.188;8.524;2022-08-01T08:05:29;5.78;;;5.13;;
46006;SDS011;31738;50.188;8.524;2022-08-01T08:07:56;6.40;;;5.20;;
46006;SDS011;31738;50.188;8.524;2022-08-01T08:10:21;5.55;;;4.97;;
46006;SDS011;31738;50.188;8.524;2022-08-01T08:12:47;7.93;;;5.38;;
46006;SDS011;31738;50.188;8.524;2022-08-01T08:15:13;5.32;;;4.82;;
46006;SDS011;31738;50.188;8.524;2022-08-01T08:17:39;8.02;;;5.32;;
46006;SDS011;31738;50.188;8.524;2022-08-01T08:20:05;7.65;;;5.65;;
46006;SDS011;31738;50.188;8.524;2022-08-01T08:22:31;7.55;;;5.43;;
46006;SDS011;31738;50.188;8.524;2022-08-01T08:24:57;7.15;;;5.55;;
46006;SDS011;31738;50.188;8.524;2022-08-01T08:27:23;6.65;;;5.40;;
46006;SDS011;31738;50.188;8.524;2022-08-01T08:29:48;6.43;;;5.30;;
46006;SDS011;31738;50.188;8.524;2022-08-01T08:32:13;6.10;;;5.50;;
46006;SDS011;31738;50.188;8.524;2022-08-01T08:34:39;8.68;;;5.05;;
46006;SDS011;31738;50.188;8.524;2022-08-01T08:37:05;5.90;;;5.00;;
46006;SDS011;31738;50.188;8.524;2022-08-01T08:39:30;5.90;;;4.85;;
46006;SDS011;31738;50.188;8.524;2022-08-01T08:41:58;5.95;;;4.40;;
46006;SDS011;31738;50.188;8.524;2022-08-01T08:44:24;6.07;;;4.85;;
46006;SDS011;31738;50.188;8.524;2022-08-01T08:46:50;6.88;;;4.85;;
46006;SDS011;31738;50.188;8.524;2022-08-01T08:49:18;6.80;;;4.95;;
46006;SDS011;31738;50.188;8.524;2022-08-01T08:51:47;5.65;;;4.30;;
46006;SDS011;31738;50.188;8.524;2022-08-01T08:54:15;11.68;;;4.97;;
46006;SDS011;31738;50.188;8.524;2022-08-01T08:56:42;5.65;;;4.80;;
46006;SDS011;31738;50.188;8.524;2022-08-01T08:59:10;5.57;;;4.70;;
46006;SDS011;31738;50.188;8.524;2022-08-01T09:01:38;4.65;;;3.85;;
46006;SDS011;31738;50.188;8.524;2022-08-01T09:04:03;4.80;;;4.30;;
46006;SDS011;31738;50.188;8.524;2022-08-01T09:06:30;5.35;;;4.75;;
46006;SDS011;31738;50.188;8.524;2022-08-01T09:08:56;6.95;;;4.85;;
46006;SDS011;31738;50.188;8.524;2022-08-01T09:11:23;6.95;;;4.55;;
46006;SDS011;31738;50.188;8.524;2022-08-01T09:14:01;5.95;;;4.30;;
46006;SDS011;31738;50.188;8.524;2022-08-01T09:16:35;4.90;;;4.15;;
46006;SDS011;31738;50.188;8.524;2022-08-01T09:19:15;7.20;;;4.53;;
46006;SDS011;31738;50.188;8.524;2022-08-01T09:21:55;6.82;;;4.50;;
46006;SDS011;31738;50.188;8.524;2022-08-01T09:24:22;5.95;;;4.95;;
46006;SDS011;31738;50.188;8.524;2022-08-01T09:26:49;5.57;;;4.53;;
46006;SDS011;31738;50.188;8.524;2022-08-01T09:29:22;7.15;;;4.20;;
46006;SDS011;31738;50.188;8.524;2022-08-01T09:31:50;6.10;;;4.43;;
46006;SDS011;31738;50.188;8.524;2022-08-01T09:34:23;5.68;;;4.85;;
46006;SDS011;31738;50.188;8.524;2022-08-01T09:39:27;6.82;;;4.20;;
46006;SDS011;31738;50.188;8.524;2022-08-01T09:41:56;5.38;;;4.45;;
46006;SDS011;31738;50.188;8.524;2022-08-01T09:44:38;4.65;;;3.90;;
46006;SDS011;31738;50.188;8.524;2022-08-01T09:47:05;5.75;;;4.10;;
46006;SDS011;31738;50.188;8.524;2022-08-01T09:49:32;6.68;;;4.20;;
46006;SDS011;31738;50.188;8.524;2022-08-01T09:52:10;4.72;;;4.25;;
46006;SDS011;31738;50.188;8.524;2022-08-01T09:54:38;4.47;;;4.07;;
46006;SDS011;31738;50.188;8.524;2022-08-01T09:57:12;3.95;;;3.55;;
46006;SDS011;31738;50.188;8.524;2022-08-01T09:59:41;4.10;;;3.70;;
46006;SDS011;31738;50.188;8.524;2022-08-01T10:02:10;5.45;;;4.10;;
46006;SDS011;31738;50.188;8.524;2022-08-01T10:04:49;6.05;;;4.97;;
46006;SDS011;31738;50.188;8.524;2022-08-01T10:07:15;5.30;;;4.07;;
46006;SDS011;31738;50.188;8.524;2022-08-01T10:09:41;4.97;;;4.25;;
46006;SDS011;31738;50.188;8.524;2022-08-01T10:12:08;3.67;;;3.33;;
46006;SDS011;31738;50.188;8.524;2022-08-01T10:14:35;4.03;;;3.63;;
46006;SDS011;31738;50.188;8.524;2022-08-01T10:17:02;4.72;;;4.20;;
46006;SDS011;31738;50.188;8.524;2022-08-01T10:19:31;4.07;;;3.38;;
46006;SDS011;31738;50.188;8.524;2022-08-01T10:21:57;3.88;;;2.80;;
46006;SDS011;31738;50.188;8.524;2022-08-01T10:24:24;4.00;;;2.90;;
46006;SDS011;31738;50.188;8.524;2022-08-01T10:26:54;4.07;;;3.08;;
46006;SDS011;31738;50.188;8.524;2022-08-01T10:29:24;3.97;;;2.65;;
46006;SDS011;31738;50.188;8.524;2022-08-01T10:31:52;3.80;;;3.30;;
46006;SDS011;31738;50.188;8.524;2022-08-01T10:34:17;3.30;;;2.85;;
46006;SDS011;31738;50.188;8.524;2022-08-01T10:36:47;4.03;;;3.03;;
46006;SDS011;31738;50.188;8.524;2022-08-01T10:39:13;3.30;;;2.90;;
46006;SDS011;31738;50.188;8.524;2022-08-01T10:41:39;3.25;;;2.90;;
46006;SDS011;31738;50.188;8.524;2022-08-01T10:44:08;2.63;;;2.42;;
46006;SDS011;31738;50.188;8.524;2022-08-01T10:46:38;2.47;;;2.22;;
46006;SDS011;31738;50.188;8.524;2022-08-01T10:49:10;3.67;;;2.42;;
46006;SDS011;31738;50.188;8.524;2022-08-01T10:51:39;3.10;;;2.65;;
46006;SDS011;31738;50.188;8.524;2022-08-01T10:54:06;3.75;;;3.20;;
46006;SDS011;31738;50.188;8.524;2022-08-01T10:56:44;3.63;;;2.92;;
46006;SDS011;31738;50.188;8.524;2022-08-01T10:59:30;4.68;;;3.00;;
46006;SDS011;31738;50.188;8.524;2022-08-01T11:02:02;3.88;;;2.80;;
46006;SDS011;31738;50.188;8.524;2022-08-01T11:07:21;2.80;;;2.60;;
46006;SDS011;31738;50.188;8.524;2022-08-01T11:10:04;4.20;;;2.38;;
46006;SDS011;31738;50.188;8.524;2022-08-01T11:12:38;3.17;;;2.70;;
46006;SDS011;31738;50.188;8.524;2022-08-01T11:20:03;3.17;;;2.70;;
46006;SDS011;31738;50.188;8.524;2022-08-01T11:31:25;2.85;;;2.45;;
46006;SDS011;31738;50.188;8.524;2022-08-01T11:38:36;2.83;;;2.50;;
46006;SDS011;31738;50.188;8.524;2022-08-01T11:43:35;3.80;;;2.40;;
46006;SDS011;31738;50.188;8.524;2022-08-01T11:46:01;3.60;;;2.60;;
46006;SDS011;31738;50.188;8.524;2022-08-01T11:48:29;2.55;;;2.35;;
46006;SDS011;31738;50.188;8.524;2022-08-01T11:50:55;2.90;;;2.60;;
46006;SDS011;31738;50.188;8.524;2022-08-01T11:53:23;4.22;;;2.47;;
46006;SDS011;31738;50.188;8.524;2022-08-01T11:55:49;2.88;;;2.47;;
46006;SDS011;31738;50.188;8.524;2022-08-01T11:58:20;2.53;;;2.33;;
46006;SDS011;31738;50.188;8.524;2022-08-01T12:00:54;3.78;;;2.30;;
46006;SDS011;31738;50.188;8.524;2022-08-01T12:03:29;5.38;;;2.58;;
46006;SDS011;31738;50.188;8.524;2022-08-01T12:05:57;3.38;;;2.15;;
46006;SDS011;31738;50.188;8.524;2022-08-01T12:08:26;2.88;;;2.67;;
46006;SDS011;31738;50.188;8.524;2022-08-01T12:10:54;2.75;;;2.55;;
46006;SDS011;31738;50.188;8.524;2022-08-01T12:13:20;2.88;;;2.55;;
46006;SDS011;31738;50.188;8.524;2022-08-01T12:15:47;5.32;;;2.70;;
46006;SDS011;31738;50.188;8.524;2022-08-01T12:18:15;2.90;;;2.60;;
46006;SDS011;31738;50.188;8.524;2022-08-01T12:20:42;3.92;;;2.85;;
46006;SDS011;31738;50.188;8.524;2022-08-01T12:23:10;2.35;;;2.00;;
46006;SDS011;31738;50.188;8.524;2022-08-01T12:25:37;2.67;;;1.90;;
46006;SDS011;31738;50.188;8.524;2022-08-01T12:28:05;2.40;;;1.95;;
46006;SDS011;31738;50.188;8.524;2022-08-01T12:30:33;3.17;;;2.22;;
46006;SDS011;31738;50.188;8.524;2022-08-01T12:33:00;2.00;;;1.80;;
46006;SDS011;31738;50.188;8.524;2022-08-01T12:35:28;2.83;;;2.17;;
46006;SDS011;31738;50.188;8.524;2022-08-01T12:37:59;2.92;;;2.63;;
46006;SDS011;31738;50.188;8.524;2022-08-01T12:40:33;2.40;;;1.95;;
46006;SDS011;31738;50.188;8.524;2022-08-01T12:43:02;2.85;;;2.25;;
46006;SDS011;31738;50.188;8.524;2022-08-01T12:45:33;3.13;;;2.42;;
46006;SDS011;31738;50.188;8.524;2022-08-01T12:47:59;2.67;;;2.42;;
46006;SDS011;31738;50.188;8.524;2022-08-01T12:50:26;2.33;;;2.13;;
46006;SDS011;31738;50.188;8.524;2022-08-01T12:52:55;2.90;;;2.42;;
46006;SDS011;31738;50.188;8.524;2022-08-01T12:55:21;2.47;;;2.28;;
46006;SDS011;31738;50.188;8.524;2022-08-01T13:00:31;3.15;;;2.55;;
46006;SDS011;31738;50.188;8.524;2022-08-01T13:03:02;2.80;;;2.25;;
46006;SDS011;31738;50.188;8.524;2022-08-01T13:08:12;4.55;;;2.38;;
46006;SDS011;31738;50.188;8.524;2022-08-01T13:10:38;2.97;;;2.70;;
46006;SDS011;31738;50.188;8.524;2022-08-01T13:13:04;4.72;;;2.58;;
46006;SDS011;31738;50.188;8.524;2022-08-01T13:15:31;4.38;;;2.83;;
46006;SDS011;31738;50.188;8.524;2022-08-01T13:18:00;4.32;;;2.40;;
46006;SDS011;31738;50.188;8.524;2022-08-01T13:20:45;2.88;;;2.58;;
46006;SDS011;31738;50.188;8.524;2022-08-01T13:23:12;3.15;;;2.53;;
46006;SDS011;31738;50.188;8.524;2022-08-01T13:25:55;2.60;;;2.40;;
46006;SDS011;31738;50.188;8.524;2022-08-01T13:28:26;3.17;;;2.40;;
46006;SDS011;31738;50.188;8.524;2022-08-01T13:33:26;3.70;;;2.50;;
46006;SDS011;31738;50.188;8.524;2022-08-01T13:35:54;4.32;;;2.50;;
46006;SDS011;31738;50.188;8.524;2022-08-01T13:38:21;3.88;;;2.65;;
46006;SDS011;31738;50.188;8.524;2022-08-01T13:41:07;4.57;;;2.47;;
46006;SDS011;31738;50.188;8.524;2022-08-01T13:43:33;6.85;;;2.75;;
46006;SDS011;31738;50.188;8.524;2022-08-01T13:46:00;4.05;;;2.65;;
46006;SDS011;31738;50.188;8.524;2022-08-01T13:48:29;4.53;;;2.60;;
46006;SDS011;31738;50.188;8.524;2022-08-01T13:50:56;2.58;;;2.38;;
46006;SDS011;31738;50.188;8.524;2022-08-01T13:53:21;3.13;;;2.50;;
46006;SDS011;31738;50.188;8.524;2022-08-01T13:55:47;4.47;;;3.22;;
46006;SDS011;31738;50.188;8.524;2022-08-01T13:58:12;3.92;;;3.33;;
46006;SDS011;31738;50.188;8.524;2022-08-01T14:00:37;3.65;;;3.15;;
46006;SDS011;31738;50.188;8.524;2022-08-01T14:03:03;5.00;;;3.45;;
46006;SDS011;31738;50.188;8.524;2022-08-01T14:05:29;9.07;;;3.05;;
46006;SDS011;31738;50.188;8.524;2022-08-01T14:07:55;3.70;;;2.88;;
46006;SDS011;31738;50.188;8.524;2022-08-01T14:10:20;3.33;;;3.03;;
46006;SDS011;31738;50.188;8.524;2022-08-01T14:12:49;3.80;;;3.30;;
46006;SDS011;31738;50.188;8.524;2022-08-01T14:15:15;4.53;;;2.80;;
46006;SDS011;31738;50.188;8.524;2022-08-01T14:17:41;4.85;;;3.35;;
46006;SDS011;31738;50.188;8.524;2022-08-01T14:20:06;3.97;;;3.35;;
46006;SDS011;31738;50.188;8.524;2022-08-01T14:22:32;3.35;;;3.05;;
46006;SDS011;31738;50.188;8.524;2022-08-01T14:24:58;3.45;;;3.10;;
46006;SDS011;31738;50.188;8.524;2022-08-01T14:27:24;3.75;;;2.55;;
46006;SDS011;31738;50.188;8.524;2022-08-01T14:29:50;3.65;;;2.78;;
46006;SDS011;31738;50.188;8.524;2022-08-01T14:32:15;3.88;;;3.05;;
46006;SDS011;31738;50.188;8.524;2022-08-01T14:34:41;4.30;;;3.22;;
46006;SDS011;31738;50.188;8.524;2022-08-01T14:37:06;4.82;;;3.15;;
46006;SDS011;31738;50.188;8.524;2022-08-01T14:39:31;4.47;;;2.72;;
46006;SDS011;31738;50.188;8.524;2022-08-01T14:41:57;3.53;;;3.22;;
46006;SDS011;31738;50.188;8.524;2022-08-01T14:44:22;4.28;;;3.08;;
46006;SDS011;31738;50.188;8.524;2022-08-01T14:46:48;4.25;;;3.10;;
46006;SDS011;31738;50.188;8.524;2022-08-01T14:49:14;3.47;;;3.10;;
46006;SDS011;31738;50.188;8.524;2022-08-01T14:51:40;4.03;;;3.63;;
46006;SDS011;31738;50.188;8.524;2022-08-01T14:54:06;3.55;;;3.10;;
46006;SDS011;31738;50.188;8.524;2022-08-01T14:56:31;3.20;;;2.90;;
46006;SDS011;31738;50.188;8.524;2022-08-01T14:58:57;3.53;;;3.08;;
46006;SDS011;31738;50.188;8.524;2022-08-01T15:01:22;5.30;;;3.22;;
46006;SDS011;31738;50.188;8.524;2022-08-01T15:03:48;3.75;;;3.10;;
46006;SDS011;31738;50.188;8.524;2022-08-01T15:06:15;4.00;;;3.30;;
46006;SDS011;31738;50.188;8.524;2022-08-01T15:08:40;2.92;;;2.65;;
46006;SDS011;31738;50.188;8.524;2022-08-01T15:11:06;3.03;;;2.72;;
46006;SDS011;31738;50.188;8.524;2022-08-01T15:13:33;3.55;;;2.92;;
46006;SDS011;31738;50.188;8.524;2022-08-01T15:15:59;3.13;;;2.83;;
46006;SDS011;31738;50.188;8.524;2022-08-01T15:18:24;3.20;;;2.90;;
46006;SDS011;31738;50.188;8.524;2022-08-01T15:20:50;3.03;;;2.65;;
46006;SDS011;31738;50.188;8.524;2022-08-01T15:23:15;3.03;;;2.72;;
46006;SDS011;31738;50.188;8.524;2022-08-01T15:25:41;3.20;;;2.75;;
46006;SDS011;31738;50.188;8.524;2022-08-01T15:28:07;4.15;;;3.33;;
46006;SDS011;31738;50.188;8.524;2022-08-01T15:30:35;3.63;;;3.10;;
46006;SDS011;31738;50.188;8.524;2022-08-01T15:33:01;2.45;;;2.25;;